createdAt,value
2022-07-25T00:01:42.518Z,12.77
2022-07-25T00:04:09.722Z,12.93
2022-07-25T00:06:38.960Z,11.48
2022-07-25T00:09:05.677Z,10.90
2022-07-25T00:11:33.762Z,11.53
2022-07-25T00:14:00.548Z,13.13
2022-07-25T00:16:27.227Z,12.02
2022-07-25T00:18:53.965Z,11.38
2022-07-25T00:21:20.663Z,13.07
2022-07-25T00:23:47.351Z,11.40
2022-07-25T00:26:13.953Z,11.48
2022-07-25T00:28:41.925Z,10.15
2022-07-25T00:31:08.632Z,11.45
2022-07-25T00:33:35.464Z,10.60
2022-07-25T00:36:02.059Z,14.53
2022-07-25T00:38:28.757Z,11.70
2022-07-25T00:40:55.932Z,10.98
2022-07-25T00:43:22.759Z,11.05
2022-07-25T00:45:50.901Z,10.93
2022-07-25T00:48:17.575Z,10.87
2022-07-25T00:50:44.723Z,10.25
2022-07-25T00:53:11.525Z,11.88
2022-07-25T00:55:38.275Z,10.68
2022-07-25T00:58:04.908Z,12.30
2022-07-25T01:00:31.622Z,11.17
2022-07-25T01:02:59.769Z,12.02
2022-07-25T01:05:26.603Z,12.18
2022-07-25T01:07:54.161Z,10.43
2022-07-25T01:10:20.871Z,11.48
2022-07-25T01:12:49.492Z,11.43
2022-07-25T01:15:17.220Z,11.70
2022-07-25T01:17:43.861Z,10.77
2022-07-25T01:20:16.198Z,13.25
2022-07-25T01:22:42.992Z,13.10
2022-07-25T01:25:10.176Z,12.03
2022-07-25T01:27:36.993Z,12.23
2022-07-25T01:30:06.247Z,11.07
2022-07-25T01:32:32.852Z,10.98
2022-07-25T01:34:59.470Z,11.82
2022-07-25T01:37:27.852Z,13.53
2022-07-25T01:39:54.454Z,11.88
2022-07-25T01:42:21.036Z,16.52
2022-07-25T01:44:47.672Z,13.90
2022-07-25T01:47:15.063Z,12.65
2022-07-25T01:49:41.752Z,11.67
2022-07-25T01:52:08.353Z,12.35
2022-07-25T01:54:36.369Z,11.23
2022-07-25T01:57:03.984Z,13.48
2022-07-25T01:59:30.809Z,12.40
2022-07-25T02:01:57.774Z,12.53
2022-07-25T02:04:24.497Z,12.38
2022-07-25T02:06:51.221Z,13.00
2022-07-25T02:09:17.865Z,12.90
2022-07-25T02:11:45.872Z,12.00
2022-07-25T02:14:12.628Z,13.27
2022-07-25T02:16:39.277Z,14.07
2022-07-25T02:19:06.005Z,12.75
2022-07-25T02:21:32.693Z,13.57
2022-07-25T02:23:59.381Z,15.77
2022-07-25T02:26:26.218Z,12.97
2022-07-25T02:28:54.213Z,14.38
2022-07-25T02:31:21.003Z,11.98
2022-07-25T02:33:47.744Z,13.73
2022-07-25T02:36:14.336Z,12.77
2022-07-25T02:38:40.945Z,14.67
2022-07-25T02:41:08.109Z,12.15
2022-07-25T02:43:34.995Z,13.10
2022-07-25T02:46:03.195Z,12.68
2022-07-25T02:48:30.094Z,12.52
2022-07-25T02:50:56.727Z,12.67
2022-07-25T02:53:40.315Z,13.52
2022-07-25T02:56:10.013Z,14.15
2022-07-25T02:58:36.673Z,15.07
2022-07-25T03:01:08.151Z,13.75
2022-07-25T03:03:34.876Z,14.07
2022-07-25T03:06:01.585Z,14.20
2022-07-25T03:08:28.387Z,14.07
2022-07-25T03:10:55.030Z,15.63
2022-07-25T03:13:21.623Z,13.80
2022-07-25T03:15:48.313Z,14.10
2022-07-25T03:18:16.407Z,12.77
2022-07-25T03:20:43.139Z,12.98
2022-07-25T03:23:09.731Z,14.90
2022-07-25T03:25:36.345Z,13.52
2022-07-25T03:28:02.993Z,13.60
2022-07-25T03:30:29.621Z,14.77
2022-07-25T03:32:56.261Z,13.90
2022-07-25T03:35:24.404Z,13.00
2022-07-25T03:37:51.056Z,13.15
2022-07-25T03:40:17.777Z,14.73
2022-07-25T03:42:44.427Z,18.95
2022-07-25T03:45:11.572Z,14.40
2022-07-25T03:47:38.216Z,14.45
2022-07-25T03:50:05.727Z,14.38
2022-07-25T03:52:33.792Z,14.57
2022-07-25T03:55:00.439Z,13.52
2022-07-25T03:57:27.053Z,14.15
2022-07-25T03:59:53.673Z,15.52
2022-07-25T04:02:20.299Z,17.25
2022-07-25T04:04:47.002Z,21.83
2022-07-25T04:07:13.692Z,18.33
2022-07-25T04:09:41.657Z,17.30
2022-07-25T04:12:08.452Z,16.60
2022-07-25T04:14:35.105Z,16.05
2022-07-25T04:17:01.884Z,20.30
2022-07-25T04:19:28.976Z,18.80
2022-07-25T04:21:55.787Z,24.92
2022-07-25T04:24:22.431Z,19.48
2022-07-25T04:26:50.411Z,19.85
2022-07-25T04:29:17.066Z,18.07
2022-07-25T04:31:43.751Z,18.10
2022-07-25T04:34:10.585Z,17.48
2022-07-25T04:36:37.176Z,17.88
2022-07-25T04:39:03.984Z,19.05
2022-07-25T04:41:30.751Z,17.53
2022-07-25T04:43:58.738Z,24.70
2022-07-25T04:46:25.341Z,21.95
2022-07-25T04:48:52.312Z,20.20
2022-07-25T04:51:19.434Z,19.33
2022-07-25T04:53:46.603Z,18.80
2022-07-25T04:56:13.217Z,17.27
2022-07-25T04:58:39.862Z,14.15
2022-07-25T05:01:07.970Z,14.60
2022-07-25T05:03:35.031Z,19.08
2022-07-25T05:06:01.998Z,16.13
2022-07-25T05:08:32.791Z,12.57
2022-07-25T05:10:59.382Z,13.63
2022-07-25T05:13:25.980Z,16.63
2022-07-25T05:15:52.651Z,13.18
2022-07-25T05:18:20.719Z,13.87
2022-07-25T05:20:47.514Z,11.80
2022-07-25T05:23:14.109Z,12.15
2022-07-25T05:25:40.772Z,13.80
2022-07-25T05:28:07.473Z,15.38
2022-07-25T05:30:37.922Z,15.40
2022-07-25T05:33:06.471Z,12.63
2022-07-25T05:35:34.566Z,14.77
2022-07-25T05:38:01.248Z,13.60
2022-07-25T05:40:27.890Z,13.57
2022-07-25T05:42:57.165Z,11.40
2022-07-25T05:45:27.519Z,13.73
2022-07-25T05:47:54.092Z,13.98
2022-07-25T05:50:20.740Z,14.90
2022-07-25T05:52:48.695Z,12.52
2022-07-25T05:55:15.551Z,11.77
2022-07-25T05:57:42.165Z,15.43
2022-07-25T06:00:09.939Z,15.20
2022-07-25T06:02:36.722Z,14.90
2022-07-25T06:05:03.632Z,12.38
2022-07-25T06:07:30.233Z,12.03
2022-07-25T06:09:58.226Z,12.30
2022-07-25T06:12:27.827Z,14.70
2022-07-25T06:14:54.405Z,14.00
2022-07-25T06:17:21.034Z,12.50
2022-07-25T06:19:49.148Z,10.53
2022-07-25T06:22:15.875Z,12.30
2022-07-25T06:24:42.458Z,10.95
2022-07-25T06:27:10.417Z,13.88
2022-07-25T06:29:39.051Z,12.50
2022-07-25T06:32:06.316Z,11.33
2022-07-25T06:34:35.756Z,11.88
2022-07-25T06:37:02.505Z,16.38
2022-07-25T06:39:29.255Z,12.25
2022-07-25T06:41:55.998Z,11.27
2022-07-25T06:44:23.979Z,13.30
2022-07-25T06:46:50.608Z,14.35
2022-07-25T06:49:17.643Z,13.20
2022-07-25T06:51:44.262Z,10.07
2022-07-25T06:54:10.932Z,10.23
2022-07-25T06:56:37.547Z,10.50
2022-07-25T06:59:04.181Z,12.13
2022-07-25T07:01:32.274Z,10.70
2022-07-25T07:03:58.959Z,8.75
2022-07-25T07:06:25.562Z,11.45
2022-07-25T07:08:52.123Z,9.93
2022-07-25T07:11:18.888Z,11.57
2022-07-25T07:13:45.543Z,19.33
2022-07-25T07:16:12.230Z,13.10
2022-07-25T07:18:40.237Z,10.82
2022-07-25T07:21:07.185Z,10.20
2022-07-25T07:23:34.408Z,14.23
2022-07-25T07:26:01.188Z,15.50
2022-07-25T07:28:27.913Z,15.77
2022-07-25T07:33:42.450Z,11.80
2022-07-25T07:36:09.568Z,10.13
2022-07-25T07:38:36.276Z,13.75
2022-07-25T07:41:02.964Z,9.70
2022-07-25T07:43:30.432Z,8.85
2022-07-25T07:45:57.395Z,9.27
2022-07-25T07:48:24.432Z,11.65
2022-07-25T07:50:52.505Z,9.35
2022-07-25T07:53:19.090Z,12.00
2022-07-25T07:55:45.858Z,8.55
2022-07-25T07:58:14.414Z,9.27
2022-07-25T08:00:44.856Z,9.23
2022-07-25T08:03:11.694Z,9.88
2022-07-25T08:05:41.840Z,8.68
2022-07-25T08:08:11.338Z,10.82
2022-07-25T08:10:40.230Z,8.90
2022-07-25T08:13:13.815Z,8.48
2022-07-25T08:15:40.950Z,8.60
2022-07-25T08:18:17.554Z,15.00
2022-07-25T08:20:44.894Z,10.35
2022-07-25T08:23:13.365Z,8.43
2022-07-25T08:25:40.376Z,9.75
2022-07-25T08:28:07.370Z,10.05
2022-07-25T08:30:35.203Z,9.52
2022-07-25T08:33:04.298Z,9.20
2022-07-25T08:35:32.853Z,8.60
2022-07-25T08:38:00.176Z,9.77
2022-07-25T08:40:29.538Z,8.93
2022-07-25T08:42:56.347Z,8.55
2022-07-25T08:45:23.510Z,9.27
2022-07-25T08:47:52.559Z,8.63
2022-07-25T08:50:26.152Z,8.80
2022-07-25T08:53:10.078Z,9.23
2022-07-25T08:55:41.414Z,11.50
2022-07-25T08:58:08.009Z,12.23
2022-07-25T09:00:34.671Z,8.60
2022-07-25T09:03:02.931Z,9.60
2022-07-25T09:05:31.381Z,9.20
2022-07-25T09:08:06.719Z,8.52
2022-07-25T09:10:33.745Z,8.05
2022-07-25T09:13:03.517Z,11.53
2022-07-25T09:15:32.033Z,9.55
2022-07-25T09:18:00.668Z,8.48
2022-07-25T09:20:38.228Z,10.57
2022-07-25T09:23:05.011Z,9.90
2022-07-25T09:25:31.651Z,10.90
2022-07-25T09:28:11.667Z,9.60
2022-07-25T09:30:38.375Z,8.00
2022-07-25T09:33:05.092Z,8.00
2022-07-25T09:35:32.439Z,9.18
2022-07-25T09:38:11.455Z,11.93
2022-07-25T09:40:38.106Z,9.00
2022-07-25T09:43:05.240Z,8.10
2022-07-25T09:45:33.517Z,8.07
2022-07-25T09:48:02.059Z,9.68
2022-07-25T09:50:30.739Z,9.90
2022-07-25T09:53:00.806Z,10.32
2022-07-25T09:55:28.082Z,10.10
2022-07-25T09:57:54.802Z,8.60
2022-07-25T10:00:25.479Z,9.13
2022-07-25T10:03:11.185Z,7.83
2022-07-25T10:05:52.849Z,8.18
2022-07-25T10:08:20.537Z,8.07
2022-07-25T10:10:47.200Z,9.77
2022-07-25T10:16:16.086Z,8.33
2022-07-25T10:18:50.011Z,8.18
2022-07-25T10:21:26.189Z,10.05
2022-07-25T10:24:01.081Z,8.93
2022-07-25T10:26:28.172Z,8.90
2022-07-25T10:28:55.972Z,9.53
2022-07-25T10:31:24.752Z,8.05
2022-07-25T10:33:54.883Z,8.73
2022-07-25T10:36:22.375Z,9.68
2022-07-25T10:38:52.010Z,9.02
2022-07-25T10:41:24.968Z,11.73
2022-07-25T10:43:51.733Z,9.10
2022-07-25T10:46:19.719Z,8.75
2022-07-25T10:48:59.015Z,10.13
2022-07-25T10:51:27.440Z,8.80
2022-07-25T10:53:54.057Z,8.57
2022-07-25T10:56:23.210Z,8.52
2022-07-25T10:58:51.667Z,9.15
2022-07-25T11:01:23.502Z,8.55
2022-07-25T11:03:50.760Z,9.00
2022-07-25T11:06:37.002Z,10.97
2022-07-25T11:09:17.750Z,8.93
2022-07-25T11:11:47.399Z,11.23
2022-07-25T11:14:15.407Z,11.02
2022-07-25T11:16:42.697Z,8.40
2022-07-25T11:19:20.042Z,8.83
2022-07-25T11:21:54.791Z,8.85
2022-07-25T11:24:21.736Z,10.30
2022-07-25T11:26:50.224Z,9.98
2022-07-25T11:29:24.221Z,10.68
2022-07-25T11:31:58.706Z,10.83
2022-07-25T11:34:30.855Z,8.80
2022-07-25T11:37:03.743Z,9.25
2022-07-25T11:39:32.800Z,9.60
2022-07-25T11:42:04.610Z,10.45
2022-07-25T11:44:34.222Z,9.20
2022-07-25T11:47:00.964Z,10.55
2022-07-25T11:49:27.614Z,13.80
2022-07-25T11:51:54.595Z,9.55
2022-07-25T11:54:22.910Z,8.82
2022-07-25T11:56:49.644Z,9.07
2022-07-25T11:59:16.277Z,10.20
2022-07-25T12:01:43.526Z,8.00
2022-07-25T12:04:15.091Z,10.25
2022-07-25T12:06:42.021Z,11.13
2022-07-25T12:09:18.306Z,12.07
2022-07-25T12:11:48.195Z,9.38
2022-07-25T12:14:15.328Z,9.10
2022-07-25T12:16:42.282Z,8.27
2022-07-25T12:19:17.438Z,8.35
2022-07-25T12:21:44.126Z,8.53
2022-07-25T12:24:10.748Z,8.73
2022-07-25T12:26:37.343Z,9.40
2022-07-25T12:29:05.712Z,8.35
2022-07-25T12:31:32.503Z,9.23
2022-07-25T12:33:59.117Z,6.97
2022-07-25T12:36:25.767Z,9.77
2022-07-25T12:38:52.399Z,8.27
2022-07-25T12:41:19.024Z,9.23
2022-07-25T12:43:45.597Z,7.50
2022-07-25T12:46:13.625Z,8.30
2022-07-25T12:48:40.388Z,9.45
2022-07-25T12:51:07.056Z,8.00
2022-07-25T12:53:33.655Z,7.82
2022-07-25T12:56:00.347Z,7.55
2022-07-25T12:58:26.978Z,8.33
2022-07-25T13:00:56.905Z,6.68
2022-07-25T13:03:29.580Z,6.60
2022-07-25T13:05:56.208Z,7.25
2022-07-25T13:08:22.802Z,6.50
2022-07-25T13:10:49.433Z,6.03
2022-07-25T13:13:16.036Z,6.65
2022-07-25T13:15:42.640Z,8.35
2022-07-25T13:18:09.293Z,6.63
2022-07-25T13:20:38.444Z,7.40
2022-07-25T13:23:05.167Z,6.80
2022-07-25T13:25:32.766Z,8.18
2022-07-25T13:27:59.400Z,7.70
2022-07-25T13:30:26.039Z,7.07
2022-07-25T13:32:53.402Z,6.32
2022-07-25T13:35:20.803Z,6.37
2022-07-25T13:37:49.943Z,9.30
2022-07-25T13:40:16.603Z,7.00
2022-07-25T13:42:43.199Z,6.32
2022-07-25T13:45:10.180Z,8.30
2022-07-25T13:47:36.912Z,6.97
2022-07-25T13:50:03.963Z,7.13
2022-07-25T13:52:30.677Z,7.93
2022-07-25T13:54:58.747Z,7.40
2022-07-25T13:57:25.419Z,7.65
2022-07-25T13:59:51.990Z,8.33
2022-07-25T14:02:18.754Z,6.70
2022-07-25T14:04:45.364Z,6.22
2022-07-25T14:07:12.205Z,8.75
2022-07-25T14:09:38.839Z,6.68
2022-07-25T14:12:07.212Z,6.73
2022-07-25T14:14:33.836Z,5.32
2022-07-25T14:17:00.538Z,5.55
2022-07-25T14:19:27.212Z,5.40
2022-07-25T14:21:53.775Z,6.80
2022-07-25T14:24:20.363Z,7.00
2022-07-25T14:26:47.086Z,6.30
2022-07-25T14:29:15.135Z,7.28
2022-07-25T14:31:41.769Z,7.03
2022-07-25T14:34:08.355Z,7.78
2022-07-25T14:36:35.393Z,5.73
2022-07-25T14:39:02.590Z,6.80
2022-07-25T14:41:29.173Z,5.93
2022-07-25T14:43:55.844Z,5.95
2022-07-25T14:46:23.943Z,6.57
2022-07-25T14:48:50.709Z,7.10
2022-07-25T14:51:17.348Z,9.50
2022-07-25T14:53:44.001Z,7.82
2022-07-25T14:56:11.623Z,7.20
2022-07-25T14:58:39.165Z,7.32
2022-07-25T15:01:06.149Z,8.67
2022-07-25T15:03:34.430Z,7.07
2022-07-25T15:06:01.191Z,7.65
2022-07-25T15:08:27.809Z,7.22
2022-07-25T15:10:54.399Z,8.73
2022-07-25T15:13:31.046Z,6.40
2022-07-25T15:15:58.948Z,6.90
2022-07-25T15:18:25.788Z,9.05
2022-07-25T15:20:53.956Z,8.63
2022-07-25T15:23:20.869Z,9.05
2022-07-25T15:26:04.039Z,7.77
2022-07-25T15:28:32.309Z,7.30
2022-07-25T15:30:59.806Z,7.90
2022-07-25T15:33:26.543Z,8.07
2022-07-25T15:35:54.661Z,11.73
2022-07-25T15:38:21.376Z,7.10
2022-07-25T15:40:48.010Z,11.60
2022-07-25T15:43:14.796Z,7.25
2022-07-25T15:45:43.583Z,8.15
2022-07-25T15:48:11.414Z,8.73
2022-07-25T15:50:41.298Z,9.67
2022-07-25T15:53:10.296Z,8.38
2022-07-25T15:55:37.735Z,9.63
2022-07-25T15:58:05.024Z,7.53
2022-07-25T16:00:31.752Z,7.43
2022-07-25T16:02:58.396Z,9.33
2022-07-25T16:05:25.170Z,8.57
2022-07-25T16:07:52.100Z,7.78
2022-07-25T16:10:20.040Z,7.60
2022-07-25T16:12:46.732Z,8.70
2022-07-25T16:15:13.500Z,8.67
2022-07-25T16:17:40.215Z,8.77
2022-07-25T16:20:07.858Z,8.25
2022-07-25T16:22:34.951Z,10.38
2022-07-25T16:25:02.004Z,8.25
2022-07-25T16:27:30.154Z,9.17
2022-07-25T16:29:57.007Z,8.13
2022-07-25T16:32:24.078Z,8.43
2022-07-25T16:34:50.679Z,8.52
2022-07-25T16:37:17.318Z,8.43
2022-07-25T16:39:44.014Z,7.57
2022-07-25T16:42:10.697Z,7.50
2022-07-25T16:44:38.737Z,10.15
2022-07-25T16:47:07.220Z,8.30
2022-07-25T16:49:34.088Z,9.40
2022-07-25T16:52:00.692Z,9.13
2022-07-25T16:54:27.281Z,8.57
2022-07-25T16:56:56.427Z,8.40
2022-07-25T16:59:26.114Z,9.52
2022-07-25T17:01:54.108Z,10.60
2022-07-25T17:07:15.416Z,8.65
2022-07-25T17:09:42.012Z,8.43
2022-07-25T17:12:08.997Z,8.60
2022-07-25T17:14:35.582Z,10.85
2022-07-25T17:17:04.584Z,11.67
2022-07-25T17:19:31.199Z,8.57
2022-07-25T17:21:57.791Z,8.18
2022-07-25T17:24:24.396Z,12.45
2022-07-25T17:26:51.082Z,9.05
2022-07-25T17:29:23.000Z,11.97
2022-07-25T17:31:49.623Z,8.32
2022-07-25T17:34:17.611Z,8.80
2022-07-25T17:36:44.473Z,9.35
2022-07-25T17:39:11.268Z,10.15
2022-07-25T17:41:38.000Z,9.80
2022-07-25T17:44:08.564Z,10.23
2022-07-25T17:46:38.073Z,8.85
2022-07-25T17:49:04.844Z,9.00
2022-07-25T17:51:32.864Z,9.40
2022-07-25T17:53:59.536Z,10.20
2022-07-25T17:56:26.125Z,10.23
2022-07-25T17:58:52.769Z,8.77
2022-07-25T18:01:19.471Z,9.35
2022-07-25T18:03:46.265Z,10.07
2022-07-25T18:06:13.010Z,10.20
2022-07-25T18:08:41.047Z,9.65
2022-07-25T18:11:07.714Z,11.52
2022-07-25T18:13:34.347Z,11.05
2022-07-25T18:16:01.098Z,10.55
2022-07-25T18:18:27.783Z,9.73
2022-07-25T18:20:54.421Z,9.27
2022-07-25T18:23:21.025Z,10.68
2022-07-25T18:25:49.007Z,10.32
2022-07-25T18:28:15.643Z,11.93
2022-07-25T18:30:42.414Z,9.27
2022-07-25T18:33:09.201Z,11.43
2022-07-25T18:35:35.898Z,22.48
2022-07-25T18:38:02.732Z,16.48
2022-07-25T18:40:29.781Z,16.00
2022-07-25T18:42:57.781Z,15.50
2022-07-25T18:45:24.356Z,12.07
2022-07-25T18:47:51.256Z,12.70
2022-07-25T18:50:17.878Z,11.52
2022-07-25T18:52:44.448Z,12.15
2022-07-25T18:55:11.117Z,14.07
2022-07-25T18:57:38.008Z,13.30
2022-07-25T19:00:08.096Z,18.15
2022-07-25T19:02:34.785Z,14.98
2022-07-25T19:05:01.684Z,14.57
2022-07-25T19:07:28.340Z,12.80
2022-07-25T19:09:54.958Z,14.13
2022-07-25T19:12:21.669Z,14.40
2022-07-25T19:14:48.248Z,14.32
2022-07-25T19:17:16.278Z,14.07
2022-07-25T19:19:42.941Z,15.50
2022-07-25T19:22:09.606Z,13.60
2022-07-25T19:24:36.215Z,12.02
2022-07-25T19:27:03.779Z,13.30
2022-07-25T19:29:30.395Z,13.68
2022-07-25T19:31:57.073Z,12.87
2022-07-25T19:34:25.000Z,16.27
2022-07-25T19:36:51.804Z,14.05
2022-07-25T19:39:18.380Z,14.50
2022-07-25T19:41:47.155Z,15.05
2022-07-25T19:44:14.024Z,14.37
2022-07-25T19:46:40.776Z,14.07
2022-07-25T19:49:07.481Z,15.43
2022-07-25T19:51:35.540Z,14.75
2022-07-25T19:54:02.772Z,16.35
2022-07-25T19:56:29.866Z,16.57
2022-07-25T19:58:56.579Z,16.55
2022-07-25T20:01:23.435Z,16.88
2022-07-25T20:03:50.073Z,16.50
2022-07-25T20:06:16.693Z,17.67
2022-07-25T20:08:44.644Z,15.27
2022-07-25T20:11:11.247Z,16.98
2022-07-25T20:13:38.008Z,15.75
2022-07-25T20:16:05.209Z,12.98
2022-07-25T20:18:32.444Z,15.95
2022-07-25T20:20:59.864Z,16.53
2022-07-25T20:23:26.736Z,16.95
2022-07-25T20:25:54.730Z,18.25
2022-07-25T20:28:26.616Z,17.67
2022-07-25T20:30:53.352Z,19.77
2022-07-25T20:33:20.055Z,16.97
2022-07-25T20:35:46.676Z,16.77
2022-07-25T20:38:13.319Z,12.73
2022-07-25T20:40:46.449Z,14.55
2022-07-25T20:43:18.613Z,13.38
2022-07-25T20:45:47.438Z,12.43
2022-07-25T20:48:14.476Z,11.00
2022-07-25T20:50:41.133Z,12.93
2022-07-25T20:53:08.453Z,10.75
2022-07-25T20:55:36.325Z,11.15
2022-07-25T20:58:03.896Z,9.63
2022-07-25T21:00:32.011Z,10.60
2022-07-25T21:02:59.755Z,11.77
2022-07-25T21:05:27.319Z,11.43
2022-07-25T21:07:54.200Z,10.30
2022-07-25T21:10:20.805Z,9.47
2022-07-25T21:12:47.547Z,10.02
2022-07-25T21:15:15.037Z,8.75
2022-07-25T21:17:43.047Z,10.15
2022-07-25T21:20:11.714Z,9.98
2022-07-25T21:22:38.950Z,9.80
2022-07-25T21:25:06.081Z,10.70
2022-07-25T21:27:32.947Z,10.60
2022-07-25T21:29:59.529Z,8.98
2022-07-25T21:32:26.260Z,9.45
2022-07-25T21:34:54.486Z,10.50
2022-07-25T21:37:21.092Z,11.13
2022-07-25T21:39:48.712Z,10.77
2022-07-25T21:42:15.769Z,10.98
2022-07-25T21:44:43.595Z,9.43
2022-07-25T21:47:10.455Z,12.90
2022-07-25T21:49:40.693Z,10.15
2022-07-25T21:52:13.725Z,8.25
2022-07-25T21:54:41.009Z,10.18
2022-07-25T21:57:13.875Z,8.63
2022-07-25T21:59:40.996Z,12.00
2022-07-25T22:02:07.604Z,8.63
2022-07-25T22:04:34.255Z,9.10
2022-07-25T22:07:00.903Z,9.43
2022-07-25T22:09:29.145Z,7.88
2022-07-25T22:11:56.564Z,8.70
2022-07-25T22:14:23.252Z,9.35
2022-07-25T22:16:50.163Z,7.90
2022-07-25T22:19:21.919Z,8.60
2022-07-25T22:21:49.060Z,7.78
2022-07-25T22:24:15.831Z,7.90
2022-07-25T22:26:43.894Z,8.18
2022-07-25T22:29:11.343Z,7.20
2022-07-25T22:31:38.355Z,7.75
2022-07-25T22:34:05.089Z,8.45
2022-07-25T22:36:31.778Z,8.63
2022-07-25T22:38:58.371Z,9.52
2022-07-25T22:41:24.971Z,8.32
2022-07-25T22:43:58.236Z,8.07
2022-07-25T22:46:28.076Z,8.38
2022-07-25T22:48:54.887Z,6.90
2022-07-25T22:51:21.521Z,8.77
2022-07-25T22:53:48.116Z,7.70
2022-07-25T22:56:14.765Z,7.07
2022-07-25T22:58:41.378Z,6.95
2022-07-25T23:01:09.729Z,7.37
2022-07-25T23:03:36.529Z,6.20
2022-07-25T23:06:03.579Z,9.18
2022-07-25T23:08:30.571Z,7.65
2022-07-25T23:10:57.338Z,7.30
2022-07-25T23:13:23.964Z,6.60
2022-07-25T23:15:51.446Z,7.28
2022-07-25T23:18:19.694Z,8.23
2022-07-25T23:20:46.591Z,7.78
2022-07-25T23:23:13.341Z,6.88
2022-07-25T23:25:40.044Z,6.87
2022-07-25T23:28:06.689Z,6.35
2022-07-25T23:30:39.739Z,7.20
2022-07-25T23:33:07.045Z,6.97
2022-07-25T23:35:35.516Z,11.93
2022-07-25T23:38:02.633Z,7.53
2022-07-25T23:40:29.355Z,6.45
2022-07-25T23:42:56.092Z,7.90
2022-07-25T23:45:25.007Z,7.22
2022-07-25T23:47:54.628Z,7.80
2022-07-25T23:50:22.353Z,6.27
2022-07-25T23:52:50.491Z,7.57
2022-07-25T23:55:17.155Z,6.72
2022-07-25T23:57:43.769Z,6.47
